Campbell Airport

Jump to: basic info | weather | frequencies | runways | comments

Related pages: nearby airports | nearby navaids | notams | map

Basic information (top)

Codes: KC81 C81
Location: lon 42.324600, lat -88.074097, elev 788 ft / 240 m msl
Status: small_airport
Scheduled airline service: no
Links: Wikipedia Mobile

Weather (top)

Current conditions for Waukegan Regional Airport 11nm (20km) ENE (rec'd 2014/12/19 14:55Z):

KUGN 191455Z 31005KT 9SM OVC024 M03/M07 A3030 RMK AO2 SLP276 T10281067 51008

Airport forecast for Kenosha Regional Airport 18nm (32km) NNE (rec'd 2014/12/19 12:42Z):

TAF KENW 191138Z 1912/2012 32005KT P6SM OVC025 
     FM191500 32005KT P6SM BKN030 
      TEMPO 1915/1917 SCT030 
     FM191700 32005KT P6SM SCT030 
     FM200300 VRB03KT P6SM BKN025

Frequencies (top)

Verify before use: may be inaccurate or out of date.

A/D: 120.55 MHz (CHICAGO APP/DEP)
UNIC: 122.7 MHz (CTAF/UNICOM)

Runways (top)

06/24: 3,573 x 40 ft (1,089 x 12 m) — other (COP) — not lighted — threshold 24 displaced 301 ft (92 m)

09/27: 3,270 x 40 ft (997 x 12 m) — paved — lighted

Latest comments (top)

My aviation birthplace.: I did my Private Pilot training here. [read]

More... (top)

See also NOTAMs and nearby airports and navaids, or visit the Campbell Airport page at the main OurAirports website..